Maturin, Venezuela
Current Conditions -  °F | °C
As of 12:00 PM on Sunday 23 Nov 2014 (Local Time) from SVCU Reporting Station
Few Clouds Few Clouds  
Wind Chill: 91°   Ceiling: Unl
Heat Index: 95°   Visibility: 6mi
Dew Point: 68°   Wind: 15mph
Humidity: 46%   Direction: 70°ENE
Pressure: 29.88"   Gusts: NA
Location:  9.75°N, 63.17°W
Report Text: SVCU 231600Z 07013KT 9999 FEW013 33/20 Q1012
Loading
Personal Weather Stations






























Interactive Weather Map New forecast layout! Learn more

10-Day Weather Forecast

Advertisements
Track Severe Weather on mobile